Time;durP1;ratioP1;P1;durP2;ratioP2;P2;SDS_P1;SDS_P2;PMS_P1;PMS_P2;Temp;Humidity;BMP_temperature;BMP_pressure;BME280_temperature;BME280_humidity;BME280_pressure;Samples;Min_cycle;Max_cycle;Signal;HPM_P1;HPM_P2
2022/08/25 00:02:13;;;;;;;8.18;5.40;;;;;;;-148.33;100.00;65374.31;5010580;28;20414;-66
2022/08/25 00:04:42;;;;;;;7.68;5.35;;;;;;;-148.33;100.00;65374.31;5010252;28;21739;-67
2022/08/25 00:07:10;;;;;;;10.45;5.65;;;;;;;-148.33;100.00;65374.31;4997496;28;20398;-68
2022/08/25 00:09:41;;;;;;;8.00;5.32;;;;;;;-148.33;100.00;65374.31;5010837;28;21896;-67
2022/08/25 00:12:08;;;;;;;8.60;6.00;;;;;;;-148.33;100.00;65374.31;5009588;28;20080;-67
2022/08/25 00:14:36;;;;;;;7.97;5.68;;;;;;;-148.33;100.00;65374.31;5010828;28;20042;-68
2022/08/25 00:17:04;;;;;;;11.73;7.38;;;;;;;-148.33;100.00;65374.31;5010074;28;20391;-67
2022/08/25 00:19:33;;;;;;;18.67;12.07;;;;;;;-148.33;100.00;65374.31;5010578;28;20609;-68
2022/08/25 00:22:02;;;;;;;10.57;6.65;;;;;;;-148.33;100.00;65374.31;5011036;28;20046;-73
2022/08/25 00:24:29;;;;;;;9.73;6.27;;;;;;;-148.33;100.00;65374.31;5010824;28;20050;-69
2022/08/25 00:26:57;;;;;;;10.38;6.00;;;;;;;-148.33;100.00;65374.31;5011414;28;20578;-67
2022/08/25 00:29:25;;;;;;;10.10;5.75;;;;;;;-148.33;100.00;65374.31;5009844;28;20038;-67
2022/08/25 00:31:54;;;;;;;9.48;6.15;;;;;;;-148.33;100.00;65374.31;5011464;28;20034;-69
2022/08/25 00:34:26;;;;;;;8.85;6.10;;;;;;;-148.33;100.00;65374.31;5010186;28;20195;-67
2022/08/25 00:36:53;;;;;;;8.47;6.00;;;;;;;-148.33;100.00;65374.31;5011360;28;20091;-66
2022/08/25 00:39:22;;;;;;;9.13;5.95;;;;;;;-148.33;100.00;65374.31;5009932;28;20041;-67
2022/08/25 00:41:52;;;;;;;7.88;5.90;;;;;;;-148.33;100.00;65374.31;5010935;28;20048;-67
2022/08/25 00:44:19;;;;;;;8.40;5.93;;;;;;;-148.33;100.00;65374.31;5010133;28;20479;-67
2022/08/25 00:46:50;;;;;;;9.95;6.20;;;;;;;-148.33;100.00;65374.31;5010971;28;20057;-67
2022/08/25 00:49:23;;;;;;;8.63;6.27;;;;;;;-148.33;100.00;65374.31;5010064;28;20045;-64
2022/08/25 00:52:17;;;;;;;9.88;6.60;;;;;;;-148.33;100.00;65374.31;5010710;28;20418;-70
2022/08/25 00:54:50;;;;;;;9.30;6.72;;;;;;;-148.33;100.00;65374.31;5008193;28;20299;-69
2022/08/25 00:57:21;;;;;;;9.57;6.03;;;;;;;-148.33;100.00;65374.31;5009951;28;20042;-66
2022/08/25 01:00:06;;;;;;;8.82;5.72;;;;;;;-148.33;100.00;65374.31;4997267;28;20482;-69
2022/08/25 01:02:32;;;;;;;9.20;5.80;;;;;;;-148.33;100.00;65374.31;5010030;28;20049;-67
2022/08/25 01:04:59;;;;;;;9.60;6.20;;;;;;;-148.33;100.00;65374.31;5010365;28;20030;-66
2022/08/25 01:07:26;;;;;;;8.23;6.13;;;;;;;-148.33;100.00;65374.31;5009618;28;20549;-69
2022/08/25 01:09:54;;;;;;;9.68;5.68;;;;;;;-148.33;100.00;65374.31;5010415;28;20048;-69
2022/08/25 01:12:21;;;;;;;10.63;5.68;;;;;;;-148.33;100.00;65374.31;5008745;28;20495;-66
2022/08/25 01:14:49;;;;;;;8.03;5.40;;;;;;;-148.33;100.00;65374.31;5003268;28;20042;-66
2022/08/25 01:17:16;;;;;;;6.72;4.97;;;;;;;-148.33;100.00;65374.31;5010003;28;20056;-63
2022/08/25 01:19:43;;;;;;;9.27;5.22;;;;;;;-148.33;100.00;65374.31;5010336;28;20045;-66
2022/08/25 01:22:11;;;;;;;7.85;5.30;;;;;;;-148.33;100.00;65374.31;5009592;28;20052;-68
2022/08/25 01:24:52;;;;;;;8.32;5.80;;;;;;;-148.33;100.00;65374.31;5008538;28;20045;-69
2022/08/25 01:27:19;;;;;;;8.83;5.73;;;;;;;-148.33;100.00;65374.31;5008149;28;20050;-67
2022/08/25 01:29:46;;;;;;;8.75;5.90;;;;;;;-148.33;100.00;65374.31;5010134;28;20042;-67
2022/08/25 01:32:13;;;;;;;8.50;5.70;;;;;;;-148.33;100.00;65374.31;5009528;28;20407;-70
2022/08/25 01:34:43;;;;;;;10.18;5.50;;;;;;;-148.33;100.00;65374.31;5009478;28;20494;-69
2022/08/25 01:37:12;;;;;;;8.52;5.60;;;;;;;-148.33;100.00;65374.31;5009615;28;20438;-68
2022/08/25 01:39:40;;;;;;;7.97;5.70;;;;;;;-148.33;100.00;65374.31;5007750;28;20033;-69
2022/08/25 01:42:27;;;;;;;7.80;5.07;;;;;;;-148.33;100.00;65374.31;5008036;28;20050;-68
2022/08/25 01:44:53;;;;;;;7.90;5.50;;;;;;;-148.33;100.00;65374.31;5009074;28;20388;-68
2022/08/25 01:47:20;;;;;;;9.18;5.00;;;;;;;-148.33;100.00;65374.31;5008976;28;20052;-70
2022/08/25 01:49:47;;;;;;;9.52;5.13;;;;;;;-148.33;100.00;65374.31;5009751;28;20099;-68
2022/08/25 01:52:15;;;;;;;8.77;5.43;;;;;;;-148.33;100.00;65374.31;5009610;28;20034;-67
2022/08/25 01:54:42;;;;;;;8.02;5.07;;;;;;;-148.33;100.00;65374.31;5008850;28;20419;-67
2022/08/25 01:57:09;;;;;;;8.27;5.38;;;;;;;-148.33;100.00;65374.31;5009333;28;20057;-67
2022/08/25 01:59:36;;;;;;;7.53;5.13;;;;;;;-148.33;100.00;65374.31;5009059;28;20489;-68
2022/08/25 02:02:04;;;;;;;7.43;5.10;;;;;;;-148.33;100.00;65374.31;5009563;28;20407;-70
2022/08/25 02:04:31;;;;;;;6.87;4.73;;;;;;;-148.33;100.00;65374.31;5008952;28;20077;-69
2022/08/25 02:07:00;;;;;;;7.30;5.15;;;;;;;-148.33;100.00;65374.31;4995630;28;20053;-67
2022/08/25 02:09:27;;;;;;;8.35;5.60;;;;;;;-148.33;100.00;65374.31;5008780;28;20045;-67
2022/08/25 02:11:55;;;;;;;7.90;5.00;;;;;;;-148.33;100.00;65374.31;5009550;28;20038;-68
2022/08/25 02:14:22;;;;;;;6.35;4.57;;;;;;;-148.33;100.00;65374.31;5008552;28;20056;-66
2022/08/25 02:16:51;;;;;;;7.73;5.30;;;;;;;-148.33;100.00;65374.31;5009313;28;20044;-66
2022/08/25 02:19:20;;;;;;;8.00;5.30;;;;;;;-148.33;100.00;65374.31;5008576;28;20249;-69
2022/08/25 02:21:47;;;;;;;7.70;5.03;;;;;;;-148.33;100.00;65374.31;5009172;28;20083;-66
2022/08/25 02:24:14;;;;;;;8.20;5.20;;;;;;;-148.33;100.00;65374.31;5008634;28;20046;-65
2022/08/25 02:26:41;;;;;;;7.05;4.78;;;;;;;-148.33;100.00;65374.31;5008616;28;20402;-66
2022/08/25 02:29:09;;;;;;;8.57;5.30;;;;;;;-148.33;100.00;65374.31;5008485;28;20521;-71
2022/08/25 02:31:36;;;;;;;7.72;5.60;;;;;;;-148.33;100.00;65374.31;5008555;28;20083;-67
2022/08/25 02:34:04;;;;;;;9.25;5.72;;;;;;;-148.33;100.00;65374.31;4994997;28;20042;-68
2022/08/25 02:36:31;;;;;;;8.35;5.55;;;;;;;-148.33;100.00;65374.31;5008425;28;20076;-68
2022/08/25 02:38:59;;;;;;;9.43;5.72;;;;;;;-148.33;100.00;65374.31;5007314;28;20072;-68
2022/08/25 02:41:26;;;;;;;10.07;6.27;;;;;;;-148.33;100.00;65374.31;5007153;28;20046;-69
2022/08/25 02:43:58;;;;;;;8.60;5.90;;;;;;;-148.33;100.00;65374.31;5009217;28;20046;-69
2022/08/25 02:46:25;;;;;;;11.65;7.10;;;;;;;-148.33;100.00;65374.31;5008894;28;20557;-66
2022/08/25 02:48:52;;;;;;;9.02;5.93;;;;;;;-148.33;100.00;65374.31;5009329;28;20362;-68
2022/08/25 02:51:21;;;;;;;8.52;6.10;;;;;;;-148.33;100.00;65374.31;5008052;28;20080;-67
2022/08/25 02:53:48;;;;;;;11.93;6.10;;;;;;;-148.33;100.00;65374.31;5009108;28;20034;-70
2022/08/25 02:56:17;;;;;;;9.32;5.68;;;;;;;-148.33;100.00;65374.31;5008556;28;20046;-67
2022/08/25 02:58:44;;;;;;;9.35;5.65;;;;;;;-148.33;100.00;65374.31;5008011;28;20933;-67
2022/08/25 03:01:12;;;;;;;8.05;5.65;;;;;;;-148.33;100.00;65374.31;5008619;28;20121;-67
2022/08/25 03:03:40;;;;;;;9.48;5.95;;;;;;;-148.33;100.00;65374.31;5008525;28;20486;-67
2022/08/25 03:06:11;;;;;;;9.67;5.43;;;;;;;-148.33;100.00;65374.31;5008822;28;20046;-65
2022/08/25 03:08:39;;;;;;;8.43;5.95;;;;;;;-148.33;100.00;65374.31;5008348;28;20499;-65
2022/08/25 03:11:05;;;;;;;7.50;5.20;;;;;;;-148.33;100.00;65374.31;5008982;28;20064;-66
2022/08/25 03:13:33;;;;;;;9.05;5.47;;;;;;;-148.33;100.00;65374.31;5007932;28;20494;-66
2022/08/25 03:16:01;;;;;;;7.90;5.53;;;;;;;-148.33;100.00;65374.31;5008471;28;20442;-67
2022/08/25 03:18:29;;;;;;;7.70;5.57;;;;;;;-148.33;100.00;65374.31;5007876;28;20068;-69
2022/08/25 03:20:57;;;;;;;6.95;5.10;;;;;;;-148.33;100.00;65374.31;5008728;28;20384;-67
2022/08/25 03:23:23;;;;;;;8.88;5.85;;;;;;;-148.33;100.00;65374.31;5006438;28;20050;-67
2022/08/25 03:28:40;;;;;;;8.57;5.68;;;;;;;-148.33;100.00;65374.31;5007816;28;20045;-70
2022/08/25 03:31:08;;;;;;;8.37;5.87;;;;;;;-148.33;100.00;65374.31;5008726;28;20034;-66
2022/08/25 03:33:35;;;;;;;9.50;5.93;;;;;;;-148.33;100.00;65374.31;5007687;28;20050;-70
2022/08/25 03:36:02;;;;;;;8.45;5.78;;;;;;;-148.33;100.00;65374.31;5008267;28;20095;-67
2022/08/25 03:38:28;;;;;;;9.55;6.70;;;;;;;-148.33;100.00;65374.31;5007581;28;20053;-66
2022/08/25 03:40:55;;;;;;;9.20;6.38;;;;;;;-148.33;100.00;65374.31;5008342;28;20045;-67
2022/08/25 03:43:22;;;;;;;8.17;5.70;;;;;;;-148.33;100.00;65374.31;5006176;28;20415;-67
2022/08/25 03:45:49;;;;;;;9.05;5.88;;;;;;;-148.33;100.00;65374.31;5009035;28;20044;-68
2022/08/25 03:48:16;;;;;;;9.85;6.05;;;;;;;-148.33;100.00;65374.31;5008550;28;20034;-67
2022/08/25 03:50:48;;;;;;;8.73;5.70;;;;;;;-148.33;100.00;65374.31;5007379;28;20738;-68
2022/08/25 03:53:18;;;;;;;9.13;5.78;;;;;;;-148.33;100.00;65374.31;5011240;28;20474;-66
2022/08/25 03:55:46;;;;;;;10.93;5.97;;;;;;;-148.33;100.00;65374.31;5011883;28;20180;-67
2022/08/25 03:58:13;;;;;;;9.00;5.53;;;;;;;-148.33;100.00;65374.31;5011477;28;20049;-70
2022/08/25 04:00:40;;;;;;;7.88;5.53;;;;;;;-148.33;100.00;65374.31;5011604;28;20046;-66
2022/08/25 04:03:07;;;;;;;9.40;5.90;;;;;;;-148.33;100.00;65374.31;5011552;28;20034;-67
2022/08/25 04:05:34;;;;;;;8.27;5.45;;;;;;;-148.33;100.00;65374.31;5011060;28;20058;-66
2022/08/25 04:08:01;;;;;;;9.83;6.60;;;;;;;-148.33;100.00;65374.31;5011699;28;20042;-66
2022/08/25 04:10:28;;;;;;;10.25;6.32;;;;;;;-148.33;100.00;65374.31;4997209;28;20495;-66
2022/08/25 04:12:56;;;;;;;7.97;5.60;;;;;;;-148.33;100.00;65374.31;5011323;28;20061;-68
2022/08/25 04:15:24;;;;;;;9.77;6.10;;;;;;;-148.33;100.00;65374.31;5010244;28;20115;-69
2022/08/25 04:17:57;;;;;;;8.98;6.20;;;;;;;-148.33;100.00;65374.31;5011335;28;20107;-66
2022/08/25 04:20:24;;;;;;;9.53;5.77;;;;;;;-148.33;100.00;65374.31;5010680;28;20045;-69
2022/08/25 04:22:51;;;;;;;9.50;6.30;;;;;;;-148.33;100.00;65374.31;5011270;28;20050;-66
2022/08/25 04:25:18;;;;;;;10.18;6.50;;;;;;;-148.33;100.00;65374.31;5010423;28;20273;-67
2022/08/25 04:27:45;;;;;;;8.60;6.10;;;;;;;-148.33;100.00;65374.31;5010815;28;20045;-69
2022/08/25 04:30:12;;;;;;;11.23;6.63;;;;;;;-148.33;100.00;65374.31;5011002;28;20034;-67
2022/08/25 04:32:38;;;;;;;8.87;6.20;;;;;;;-148.33;100.00;65374.31;5010574;28;20052;-69
2022/08/25 04:35:06;;;;;;;9.80;6.30;;;;;;;-148.33;100.00;65374.31;5010748;28;20045;-65
2022/08/25 04:37:33;;;;;;;9.50;6.10;;;;;;;-148.33;100.00;65374.31;5010241;28;20042;-66
2022/08/25 04:40:00;;;;;;;9.20;6.20;;;;;;;-148.33;100.00;65374.31;5011065;28;20052;-66
2022/08/25 04:42:27;;;;;;;9.27;6.18;;;;;;;-148.33;100.00;65374.31;5008675;28;20073;-69
2022/08/25 04:44:54;;;;;;;8.20;5.70;;;;;;;-148.33;100.00;65374.31;5011568;28;20458;-67
2022/08/25 04:47:22;;;;;;;10.48;5.85;;;;;;;-148.33;100.00;65374.31;5010668;28;20056;-68
2022/08/25 04:49:48;;;;;;;12.90;6.55;;;;;;;-148.33;100.00;65374.31;5010639;28;20046;-66
2022/08/25 04:52:15;;;;;;;11.48;6.57;;;;;;;-148.33;100.00;65374.31;5010667;28;20486;-66
2022/08/25 04:54:42;;;;;;;10.02;6.50;;;;;;;-148.33;100.00;65374.31;5010009;28;20054;-68
2022/08/25 04:57:09;;;;;;;10.13;6.83;;;;;;;-148.33;100.00;65374.31;5010363;28;20164;-69
2022/08/25 04:59:36;;;;;;;11.27;7.35;;;;;;;-148.33;100.00;65374.31;5009917;28;20046;-67
2022/08/25 05:02:05;;;;;;;10.88;6.82;;;;;;;-148.33;100.00;65374.31;5010124;28;20048;-69
2022/08/25 05:04:34;;;;;;;10.35;7.25;;;;;;;-148.33;100.00;65374.31;5009697;28;20402;-68
2022/08/25 05:07:02;;;;;;;11.20;7.68;;;;;;;-148.33;100.00;65374.31;5010562;28;20042;-68
2022/08/25 05:09:29;;;;;;;12.20;8.33;;;;;;;-148.33;100.00;65374.31;5009636;28;20450;-67
2022/08/25 05:11:59;;;;;;;11.75;7.75;;;;;;;-148.33;100.00;65374.31;5010219;28;20056;-65
2022/08/25 05:14:27;;;;;;;10.75;7.05;;;;;;;-148.33;100.00;65374.31;5009366;28;20046;-69
2022/08/25 05:16:56;;;;;;;10.43;6.60;;;;;;;-148.33;100.00;65374.31;5010236;28;20042;-66
2022/08/25 05:19:23;;;;;;;12.98;7.05;;;;;;;-148.33;100.00;65374.31;5009490;28;20038;-68
2022/08/25 05:21:50;;;;;;;11.13;7.27;;;;;;;-148.33;100.00;65374.31;5010336;28;20616;-66
2022/08/25 05:24:18;;;;;;;11.07;6.90;;;;;;;-148.33;100.00;65374.31;5009529;28;20050;-66
2022/08/25 05:26:45;;;;;;;18.02;8.02;;;;;;;-148.33;100.00;65374.31;5010003;28;20034;-64
2022/08/25 05:29:13;;;;;;;12.23;7.40;;;;;;;-148.33;100.00;65374.31;5009895;28;20068;-64
2022/08/25 05:31:41;;;;;;;10.18;6.80;;;;;;;-148.33;100.00;65374.31;5009228;28;20049;-65
2022/08/25 05:34:17;;;;;;;11.43;6.97;;;;;;;-148.33;100.00;65374.31;5009640;28;20081;-68
2022/08/25 05:36:43;;;;;;;12.05;7.20;;;;;;;-148.33;100.00;65374.31;5008746;28;20749;-65
2022/08/25 05:39:11;;;;;;;13.55;7.47;;;;;;;-148.33;100.00;65374.31;5009468;28;20045;-66
2022/08/25 05:41:38;;;;;;;13.30;8.10;;;;;;;-148.33;100.00;65374.31;5009155;28;20430;-67
2022/08/25 05:44:05;;;;;;;13.07;8.82;;;;;;;-148.33;100.00;65374.31;5008502;28;20037;-65
2022/08/25 05:46:32;;;;;;;12.37;7.80;;;;;;;-148.33;100.00;65374.31;5008852;28;20487;-62
2022/08/25 05:48:59;;;;;;;11.10;7.35;;;;;;;-148.33;100.00;65374.31;5040873;28;20048;-62
2022/08/25 05:51:26;;;;;;;11.73;7.05;;;;;;;-148.33;100.00;65374.31;5007951;28;20120;-62
2022/08/25 05:53:53;;;;;;;12.98;7.80;;;;;;;-148.33;100.00;65374.31;5007294;28;20049;-69
2022/08/25 05:56:20;;;;;;;11.32;7.35;;;;;;;-148.33;100.00;65374.31;5007967;28;20042;-71
2022/08/25 05:58:47;;;;;;;10.60;7.53;;;;;;;-148.33;100.00;65374.31;5008535;28;20041;-65
2022/08/25 06:04:16;;;;;;;10.13;7.20;;;;;;;-148.33;100.00;65374.31;5012466;28;22145;-62
2022/08/25 06:06:43;;;;;;;12.05;7.13;;;;;;;-148.33;100.00;65374.31;5009183;28;20618;-66
2022/08/25 06:09:10;;;;;;;13.10;7.43;;;;;;;-148.33;100.00;65374.31;5009286;28;20458;-66
2022/08/25 06:11:38;;;;;;;10.57;7.30;;;;;;;-148.33;100.00;65374.31;5008550;28;20509;-69
2022/08/25 06:14:09;;;;;;;12.40;7.43;;;;;;;-148.33;100.00;65374.31;5008074;28;20050;-68
2022/08/25 06:16:37;;;;;;;13.57;8.02;;;;;;;-148.33;100.00;65374.31;5007998;28;20048;-66
2022/08/25 06:19:06;;;;;;;11.80;7.40;;;;;;;-148.33;100.00;65374.31;5009006;28;20541;-70
2022/08/25 06:21:32;;;;;;;11.27;7.50;;;;;;;-148.33;100.00;65374.31;5008475;28;20046;-64
2022/08/25 06:24:00;;;;;;;11.87;6.97;;;;;;;-148.33;100.00;65374.31;5009154;28;20442;-65
2022/08/25 06:26:27;;;;;;;11.07;7.50;;;;;;;-148.33;100.00;65374.31;5008334;28;20046;-62
2022/08/25 06:28:54;;;;;;;17.85;7.53;;;;;;;-148.33;100.00;65374.31;5008053;28;20037;-62
2022/08/25 06:31:21;;;;;;;10.48;7.00;;;;;;;-148.33;100.00;65374.31;5007054;28;20608;-67
2022/08/25 06:33:49;;;;;;;8.57;5.82;;;;;;;-148.33;100.00;65374.31;5009348;28;20104;-70
2022/08/25 06:36:16;;;;;;;8.03;5.30;;;;;;;-148.33;100.00;65374.31;5009160;28;20033;-68
2022/08/25 06:38:43;;;;;;;8.13;5.22;;;;;;;-148.33;100.00;65374.31;5007759;28;20352;-71
2022/08/25 06:41:11;;;;;;;7.57;5.22;;;;;;;-148.33;100.00;65374.31;5009012;28;20045;-68
2022/08/25 06:43:39;;;;;;;9.68;5.75;;;;;;;-148.33;100.00;65374.31;5008244;28;20048;-71
2022/08/25 06:46:17;;;;;;;7.28;5.90;;;;;;;-148.33;100.00;65374.31;5008703;28;20049;-64
2022/08/25 06:48:44;;;;;;;8.23;5.60;;;;;;;-148.33;100.00;65374.31;5006607;28;21765;-69
2022/08/25 06:51:13;;;;;;;7.28;5.30;;;;;;;-148.33;100.00;65374.31;5008815;28;20084;-65
2022/08/25 06:53:41;;;;;;;6.25;4.68;;;;;;;-148.33;100.00;65374.31;5008302;28;20399;-65
2022/08/25 06:56:09;;;;;;;6.55;4.30;;;;;;;-148.33;100.00;65374.31;5008641;28;20511;-64
2022/08/25 06:58:36;;;;;;;7.43;6.20;;;;;;;-148.33;100.00;65374.31;5008074;28;20058;-65
2022/08/25 07:01:16;;;;;;;6.03;4.60;;;;;;;-148.33;100.00;65374.31;5008843;28;20048;-66
2022/08/25 07:03:47;;;;;;;6.65;4.90;;;;;;;-148.33;100.00;65374.31;5007570;28;20852;-68
2022/08/25 07:06:14;;;;;;;6.35;4.10;;;;;;;-148.33;100.00;65374.31;5008602;28;20394;-69
2022/08/25 07:08:45;;;;;;;7.78;4.43;;;;;;;-148.33;100.00;65374.31;5007486;28;20389;-66
2022/08/25 07:11:13;;;;;;;5.45;4.60;;;;;;;-148.33;100.00;65374.31;5009001;28;20042;-69
2022/08/25 07:13:43;;;;;;;5.77;4.70;;;;;;;-148.33;100.00;65374.31;5007650;28;20655;-69
2022/08/25 07:16:10;;;;;;;6.32;4.55;;;;;;;-148.33;100.00;65374.31;5008776;28;20049;-66
2022/08/25 07:18:37;;;;;;;6.35;4.45;;;;;;;-148.33;100.00;65374.31;5007952;28;20046;-69
2022/08/25 07:21:05;;;;;;;5.47;4.13;;;;;;;-148.33;100.00;65374.31;5008834;28;20042;-66
2022/08/25 07:23:35;;;;;;;5.68;4.25;;;;;;;-148.33;100.00;65374.31;5006798;28;20526;-68
2022/08/25 07:26:18;;;;;;;5.67;3.70;;;;;;;-148.33;100.00;65374.31;5010311;28;20045;-68
2022/08/25 07:29:12;;;;;;;5.07;4.20;;;;;;;-148.33;100.00;65374.31;5010955;28;20662;-64
2022/08/25 07:31:39;;;;;;;5.82;4.50;;;;;;;-148.33;100.00;65374.31;5011484;28;20042;-70
2022/08/25 07:36:55;;;;;;;4.65;3.72;;;;;;;-148.33;100.00;65374.31;5011200;28;20829;-70
2022/08/25 07:39:23;;;;;;;3.97;2.93;;;;;;;-148.33;100.00;65374.31;5011492;28;20046;-69
2022/08/25 07:41:51;;;;;;;6.57;4.38;;;;;;;-148.33;100.00;65374.31;5011626;28;20125;-66
2022/08/25 07:44:19;;;;;;;3.97;2.80;;;;;;;-148.33;100.00;65374.31;5011263;28;20044;-68
2022/08/25 07:46:47;;;;;;;4.00;2.70;;;;;;;-148.33;100.00;65374.31;5011631;28;20042;-68
2022/08/25 07:49:17;;;;;;;3.80;2.88;;;;;;;-148.33;100.00;65374.31;5011774;28;20034;-72
2022/08/25 07:52:04;;;;;;;4.00;3.10;;;;;;;-148.33;100.00;65374.31;5010993;28;20418;-72
2022/08/25 07:54:34;;;;;;;3.47;2.50;;;;;;;-148.33;100.00;65374.31;5011011;28;20339;-70
2022/08/25 07:57:06;;;;;;;4.18;3.10;;;;;;;-148.33;100.00;65374.31;5011366;28;20045;-65
2022/08/25 07:59:32;;;;;;;4.07;2.45;;;;;;;-148.33;100.00;65374.31;5010828;28;20061;-65
2022/08/25 08:02:10;;;;;;;3.17;2.17;;;;;;;-148.33;100.00;65374.31;4998956;28;20052;-71
2022/08/25 08:04:51;;;;;;;4.43;2.70;;;;;;;-148.33;100.00;65374.31;5010668;28;20685;-65
2022/08/25 08:07:21;;;;;;;3.45;2.60;;;;;;;-148.33;100.00;65374.31;5011451;28;20048;-63
2022/08/25 08:09:49;;;;;;;4.72;2.90;;;;;;;-148.33;100.00;65374.31;5011155;28;20100;-70
2022/08/25 08:12:32;;;;;;;4.35;2.97;;;;;;;-148.33;100.00;65374.31;5010290;28;20100;-66
2022/08/25 08:14:59;;;;;;;3.72;2.90;;;;;;;-148.33;100.00;65374.31;5011130;28;20046;-66
2022/08/25 08:17:26;;;;;;;4.87;2.80;;;;;;;-148.33;100.00;65374.31;5010773;28;20060;-70
2022/08/25 08:19:53;;;;;;;3.92;2.88;;;;;;;-148.33;100.00;65374.31;5011079;28;20048;-67
2022/08/25 08:22:19;;;;;;;4.65;3.30;;;;;;;-148.33;100.00;65374.31;5011060;28;20045;-70
2022/08/25 08:24:47;;;;;;;5.38;3.50;;;;;;;-148.33;100.00;65374.31;5009430;28;20091;-65
2022/08/25 08:27:21;;;;;;;4.53;3.42;;;;;;;-148.33;100.00;65374.31;5004745;28;20054;-67
2022/08/25 08:29:48;;;;;;;4.17;3.07;;;;;;;-148.33;100.00;65374.31;5011354;28;20297;-69
2022/08/25 08:32:16;;;;;;;5.43;3.40;;;;;;;-148.33;100.00;65374.31;5011139;28;20056;-72
2022/08/25 08:34:45;;;;;;;5.32;3.40;;;;;;;-148.33;100.00;65374.31;5009731;28;20775;-72
2022/08/25 08:37:17;;;;;;;5.93;4.30;;;;;;;-148.33;100.00;65374.31;5009842;28;20446;-63
2022/08/25 08:39:45;;;;;;;5.25;3.78;;;;;;;-148.33;100.00;65374.31;5010501;28;20046;-65
2022/08/25 08:42:37;;;;;;;5.63;4.13;;;;;;;-148.33;100.00;65374.31;5010983;28;20065;-66
2022/08/25 08:45:10;;;;;;;5.72;4.38;;;;;;;-148.33;100.00;65374.31;5008608;28;20406;-69
2022/08/25 08:48:09;;;;;;;5.35;4.10;;;;;;;-148.33;100.00;65374.31;5010183;28;20072;-70
2022/08/25 08:50:58;;;;;;;5.68;4.05;;;;;;;-148.33;100.00;65374.31;5009045;28;20064;-65
2022/08/25 08:53:53;;;;;;;5.50;4.38;;;;;;;-148.33;100.00;65374.31;5010236;28;20050;-72
2022/08/25 08:56:27;;;;;;;4.73;3.57;;;;;;;-148.33;100.00;65374.31;5009563;28;20042;-69
2022/08/25 08:59:13;;;;;;;5.68;4.25;;;;;;;-148.33;100.00;65374.31;5010341;28;20402;-66
2022/08/25 09:01:56;;;;;;;5.68;4.28;;;;;;;-148.33;100.00;65374.31;5009885;28;20107;-66
2022/08/25 09:04:33;;;;;;;4.72;4.00;;;;;;;-148.33;100.00;65374.31;5010056;28;20050;-70
2022/08/25 09:07:09;;;;;;;6.25;3.92;;;;;;;-148.33;100.00;65374.31;5010604;28;20058;-67
2022/08/25 09:09:39;;;;;;;4.60;3.80;;;;;;;-148.33;100.00;65374.31;5009603;28;20034;-66
2022/08/25 09:12:27;;;;;;;7.07;4.00;;;;;;;-148.33;100.00;65374.31;5010535;28;20461;-70
2022/08/25 09:15:11;;;;;;;6.03;4.07;;;;;;;-148.33;100.00;65374.31;5009222;28;20045;-67
2022/08/25 09:17:57;;;;;;;4.45;3.40;;;;;;;-148.33;100.00;65374.31;5009655;28;20046;-72
2022/08/25 09:20:44;;;;;;;9.07;4.15;;;;;;;-148.33;100.00;65374.31;4999114;28;20450;-66
2022/08/25 09:23:23;;;;;;;4.47;3.50;;;;;;;-148.33;100.00;65374.31;5009934;28;20042;-66
2022/08/25 09:26:14;;;;;;;7.13;4.15;;;;;;;-148.33;100.00;65374.31;5008792;28;20381;-66
2022/08/25 09:28:51;;;;;;;4.90;3.80;;;;;;;-148.33;100.00;65374.31;5008990;28;20566;-69
2022/08/25 09:31:30;;;;;;;5.43;3.70;;;;;;;-148.33;100.00;65374.31;5008561;28;20041;-70
2022/08/25 09:34:00;;;;;;;5.35;4.00;;;;;;;-148.33;100.00;65374.31;5010566;28;20564;-72
2022/08/25 09:36:28;;;;;;;4.87;3.50;;;;;;;-148.33;100.00;65374.31;5007365;28;20050;-67
2022/08/25 09:38:59;;;;;;;5.05;3.60;;;;;;;-148.33;100.00;65374.31;5009802;28;20042;-66
2022/08/25 09:41:46;;;;;;;5.25;3.70;;;;;;;-148.33;100.00;65374.31;5009286;28;20419;-67
2022/08/25 09:44:20;;;;;;;4.90;3.80;;;;;;;-148.33;100.00;65374.31;5009718;28;20041;-68
2022/08/25 09:47:00;;;;;;;5.53;4.00;;;;;;;-148.33;100.00;65374.31;5008549;28;20048;-67
2022/08/25 09:49:38;;;;;;;5.77;4.10;;;;;;;-148.33;100.00;65374.31;5008229;28;20107;-70
2022/08/25 09:52:19;;;;;;;5.32;4.00;;;;;;;-148.33;100.00;65374.31;5009755;28;20115;-69
2022/08/25 09:54:49;;;;;;;5.32;4.18;;;;;;;-148.33;100.00;65374.31;5008505;28;22081;-66
2022/08/25 09:57:32;;;;;;;5.03;3.60;;;;;;;-148.33;100.00;65374.31;5009668;28;20037;-65
2022/08/25 10:00:14;;;;;;;4.70;3.63;;;;;;;-148.33;100.00;65374.31;5008415;28;20083;-70
2022/08/25 10:02:43;;;;;;;4.43;3.33;;;;;;;-148.33;100.00;65374.31;5008871;28;20048;-65
2022/08/25 10:05:46;;;;;;;5.32;3.30;;;;;;;-148.33;100.00;65374.31;5009507;28;20044;-71
2022/08/25 10:08:30;;;;;;;5.60;3.30;;;;;;;-148.33;100.00;65374.31;5007165;28;20691;-66
2022/08/25 10:11:00;;;;;;;5.85;3.40;;;;;;;-148.33;100.00;65374.31;5009339;28;20049;-67
2022/08/25 10:13:43;;;;;;;4.35;3.25;;;;;;;-148.33;100.00;65374.31;5008586;28;20046;-71
2022/08/25 10:16:23;;;;;;;4.83;3.10;;;;;;;-148.33;100.00;65374.31;5009506;28;20041;-71
2022/08/25 10:18:59;;;;;;;4.15;3.08;;;;;;;-148.33;100.00;65374.31;5008041;28;20068;-68
2022/08/25 10:21:27;;;;;;;3.97;3.30;;;;;;;-148.33;100.00;65374.31;5008922;28;20527;-66
2022/08/25 10:23:55;;;;;;;4.38;3.20;;;;;;;-148.33;100.00;65374.31;5008840;28;20050;-65
2022/08/25 10:26:50;;;;;;;4.20;3.30;;;;;;;-148.33;100.00;65374.31;5008845;28;20053;-68
2022/08/25 10:29:33;;;;;;;3.77;3.30;;;;;;;-148.33;100.00;65374.31;4994297;28;20056;-63
2022/08/25 10:32:22;;;;;;;4.15;3.50;;;;;;;-148.33;100.00;65374.31;5008940;28;20065;-71
2022/08/25 10:34:54;;;;;;;4.63;3.45;;;;;;;-148.33;100.00;65374.31;5008212;28;21709;-66
2022/08/25 10:37:33;;;;;;;5.00;3.20;;;;;;;-148.33;100.00;65374.31;5008522;28;20060;-69
2022/08/25 10:40:14;;;;;;;4.60;3.15;;;;;;;-148.33;100.00;65374.31;5008808;28;20050;-67
2022/08/25 10:43:06;;;;;;;4.00;3.10;;;;;;;-148.33;100.00;65374.31;5006680;28;21646;-65
2022/08/25 10:45:44;;;;;;;5.07;3.40;;;;;;;-148.33;100.00;65374.31;4995210;28;20548;-66
2022/08/25 10:48:20;;;;;;;4.40;3.60;;;;;;;-148.33;100.00;65374.31;5009006;28;20042;-68
2022/08/25 10:50:57;;;;;;;4.22;3.22;;;;;;;-148.33;100.00;65374.31;5007655;28;20595;-69
2022/08/25 10:53:43;;;;;;;4.30;3.17;;;;;;;-148.33;100.00;65374.31;5008428;28;20441;-65
2022/08/25 10:56:40;;;;;;;4.40;3.30;;;;;;;-148.33;100.00;65374.31;5008821;28;20053;-66
2022/08/25 10:59:19;;;;;;;4.00;3.35;;;;;;;-148.33;100.00;65374.31;5007719;28;20038;-66
2022/08/25 11:02:17;;;;;;;4.22;3.20;;;;;;;-148.33;100.00;65374.31;5010588;28;20537;-65
2022/08/25 11:04:58;;;;;;;4.55;3.25;;;;;;;-148.33;100.00;65374.31;5011364;28;20628;-69
2022/08/25 11:07:30;;;;;;;4.07;2.92;;;;;;;-148.33;100.00;65374.31;5012013;28;20054;-70
2022/08/25 11:10:04;;;;;;;4.17;3.23;;;;;;;-148.33;100.00;65374.31;5012376;28;20046;-66
2022/08/25 11:12:37;;;;;;;4.30;3.42;;;;;;;-148.33;100.00;65374.31;5012098;28;20038;-69
2022/08/25 11:15:11;;;;;;;4.25;3.20;;;;;;;-148.33;100.00;65374.31;5012767;28;20047;-66
2022/08/25 11:18:00;;;;;;;5.43;3.40;;;;;;;-148.33;100.00;65374.31;5012070;28;20050;-72
2022/08/25 11:20:36;;;;;;;3.95;3.10;;;;;;;-148.33;100.00;65374.31;5012033;28;20046;-67
2022/08/25 11:23:10;;;;;;;5.37;3.53;;;;;;;-148.33;100.00;65374.31;5011749;28;20041;-68
2022/08/25 11:25:42;;;;;;;4.20;3.10;;;;;;;-148.33;100.00;65374.31;5012127;28;20529;-66
2022/08/25 11:28:25;;;;;;;4.75;3.10;;;;;;;-148.33;100.00;65374.31;5012215;28;20050;-71
2022/08/25 11:30:56;;;;;;;4.18;3.03;;;;;;;-148.33;100.00;65374.31;5011337;28;21842;-68
2022/08/25 11:33:25;;;;;;;5.03;3.28;;;;;;;-148.33;100.00;65374.31;5011851;28;20115;-66
2022/08/25 11:36:01;;;;;;;4.87;3.40;;;;;;;-148.33;100.00;65374.31;5011857;28;20400;-71